createdAt,value
2017-09-20T00:01:46.367Z,51.17
2017-09-20T00:04:14.098Z,48.97
2017-09-20T00:06:42.584Z,49.47
2017-09-20T00:09:11.069Z,55.63
2017-09-20T00:11:39.608Z,49.25
2017-09-20T00:14:07.474Z,50.67
2017-09-20T00:16:35.343Z,50.08
2017-09-20T00:19:03.078Z,50.20
2017-09-20T00:21:30.807Z,53.78
2017-09-20T00:23:59.456Z,44.70
2017-09-20T00:26:27.323Z,49.70
2017-09-20T00:28:55.191Z,46.85
2017-09-20T00:31:22.927Z,49.45
2017-09-20T00:33:50.666Z,51.75
2017-09-20T00:36:19.306Z,48.70
2017-09-20T00:38:47.171Z,53.47
2017-09-20T00:41:15.038Z,55.83
2017-09-20T00:43:42.914Z,57.78
2017-09-20T00:46:10.773Z,55.90
2017-09-20T00:48:38.640Z,49.60
2017-09-20T00:51:06.508Z,53.58
2017-09-20T00:53:34.267Z,54.90
2017-09-20T00:56:02.139Z,59.92
2017-09-20T00:58:29.930Z,54.53
2017-09-20T01:00:57.719Z,53.28
2017-09-20T01:03:25.538Z,53.40
2017-09-20T01:05:53.404Z,57.35
2017-09-20T01:08:21.277Z,74.65
2017-09-20T01:10:49.142Z,65.55
2017-09-20T01:13:17.008Z,63.85
2017-09-20T01:15:44.880Z,60.22
2017-09-20T01:18:12.746Z,58.40
2017-09-20T01:20:52.400Z,58.70
2017-09-20T01:23:22.919Z,55.22
2017-09-20T01:25:50.751Z,57.50
2017-09-20T01:28:18.546Z,58.63
2017-09-20T01:30:46.351Z,60.08
2017-09-20T01:33:14.863Z,58.40
2017-09-20T01:35:42.650Z,56.30
2017-09-20T01:38:10.396Z,54.90
2017-09-20T01:40:38.292Z,52.17
2017-09-20T01:43:06.159Z,56.17
2017-09-20T01:45:34.028Z,59.10
2017-09-20T01:48:01.894Z,60.53
2017-09-20T01:50:30.387Z,58.78
2017-09-20T01:52:58.112Z,57.75
2017-09-20T01:55:25.845Z,56.75
2017-09-20T01:57:54.489Z,50.88
2017-09-20T02:00:22.241Z,43.33
2017-09-20T02:02:49.989Z,43.63
2017-09-20T02:05:17.784Z,56.22
2017-09-20T02:07:45.652Z,46.63
2017-09-20T02:10:13.518Z,55.88
2017-09-20T02:12:41.386Z,56.13
2017-09-20T02:15:09.253Z,55.97
2017-09-20T02:17:36.978Z,54.90
2017-09-20T02:20:04.709Z,56.70
2017-09-20T02:22:32.450Z,60.53
2017-09-20T02:25:00.313Z,67.05
2017-09-20T02:27:28.187Z,63.20
2017-09-20T02:29:56.048Z,57.22
2017-09-20T02:32:23.774Z,56.08
2017-09-20T02:34:51.680Z,54.42
2017-09-20T02:37:19.547Z,54.28
2017-09-20T02:39:47.416Z,52.28
2017-09-20T02:42:15.282Z,53.40
2017-09-20T02:44:43.047Z,59.47
2017-09-20T02:47:10.804Z,51.22
2017-09-20T02:49:38.680Z,49.13
2017-09-20T02:52:06.548Z,55.50
2017-09-20T02:54:34.415Z,76.00
2017-09-20T02:57:02.281Z,70.75
2017-09-20T02:59:30.003Z,74.37
2017-09-20T03:01:57.914Z,49.78
2017-09-20T03:04:25.663Z,55.58
2017-09-20T03:06:53.545Z,37.22
2017-09-20T03:09:21.270Z,34.42
2017-09-20T03:11:49.023Z,32.28
2017-09-20T03:14:17.659Z,30.00
2017-09-20T03:16:45.526Z,86.25
2017-09-20T03:19:13.404Z,29.23
2017-09-20T03:21:41.130Z,69.45
2017-09-20T03:24:08.855Z,25.83
2017-09-20T03:26:37.345Z,15.23
2017-09-20T03:29:05.826Z,19.60
2017-09-20T03:31:34.323Z,21.37
2017-09-20T03:34:02.134Z,36.22
2017-09-20T03:36:30.001Z,29.10
2017-09-20T03:38:57.869Z,30.27
2017-09-20T03:41:25.736Z,27.13
2017-09-20T03:43:53.536Z,40.05
2017-09-20T03:46:22.032Z,46.13
2017-09-20T03:48:50.669Z,47.92
2017-09-20T03:51:18.536Z,50.17
2017-09-20T03:53:46.404Z,57.55
2017-09-20T03:56:14.128Z,57.67
2017-09-20T03:58:41.935Z,45.40
2017-09-20T04:01:09.801Z,39.17
2017-09-20T04:03:37.667Z,29.63
2017-09-20T04:06:05.536Z,40.50
2017-09-20T04:08:33.505Z,35.78
2017-09-20T04:11:01.216Z,39.00
2017-09-20T04:13:29.698Z,44.90
2017-09-20T04:15:58.207Z,39.33
2017-09-20T04:18:26.002Z,43.85
2017-09-20T04:20:53.740Z,46.83
2017-09-20T04:23:21.632Z,51.35
2017-09-20T04:25:49.524Z,54.85
2017-09-20T04:28:17.250Z,57.45
2017-09-20T04:30:45.136Z,49.13
2017-09-20T04:33:12.939Z,48.47
2017-09-20T04:35:40.760Z,51.70
2017-09-20T04:38:08.630Z,52.40
2017-09-20T04:40:36.498Z,46.03
2017-09-20T04:43:04.364Z,47.88
2017-09-20T04:45:32.088Z,44.38
2017-09-20T04:47:59.808Z,81.55
2017-09-20T04:50:27.526Z,84.20
2017-09-20T04:52:55.296Z,82.57
2017-09-20T04:55:23.023Z,85.80
2017-09-20T04:57:51.499Z,83.22
2017-09-20T05:00:19.995Z,80.93
2017-09-20T05:02:48.468Z,89.13
2017-09-20T05:05:16.942Z,80.07
2017-09-20T05:07:45.417Z,83.62
2017-09-20T05:10:13.142Z,76.25
2017-09-20T05:12:40.857Z,63.75
2017-09-20T05:15:09.358Z,59.53
2017-09-20T05:17:37.104Z,63.58
2017-09-20T05:20:05.616Z,70.62
2017-09-20T05:22:33.338Z,80.30
2017-09-20T05:25:01.070Z,83.10
2017-09-20T05:27:28.798Z,71.70
2017-09-20T05:29:56.582Z,67.78
2017-09-20T05:32:24.352Z,73.32
2017-09-20T05:34:52.101Z,70.70
2017-09-20T05:37:19.827Z,73.82
2017-09-20T05:39:47.598Z,58.00
2017-09-20T05:42:16.094Z,51.03
2017-09-20T05:44:44.592Z,51.15
2017-09-20T05:47:12.326Z,54.80
2017-09-20T05:49:40.824Z,59.60
2017-09-20T05:52:09.322Z,50.25
2017-09-20T05:54:37.050Z,56.67
2017-09-20T05:57:04.784Z,56.63
2017-09-20T05:59:32.549Z,58.58
2017-09-20T06:02:00.283Z,58.80
2017-09-20T06:04:28.013Z,63.28
2017-09-20T06:06:56.522Z,58.60
2017-09-20T06:09:24.263Z,63.85
2017-09-20T06:11:52.763Z,64.40
2017-09-20T06:14:20.486Z,61.28
2017-09-20T06:16:49.091Z,55.95
2017-09-20T06:19:17.589Z,61.75
2017-09-20T06:21:45.331Z,57.78
2017-09-20T06:24:13.050Z,62.67
2017-09-20T06:26:40.779Z,60.92
2017-09-20T06:29:09.276Z,54.28
2017-09-20T06:31:37.011Z,52.22
2017-09-20T06:34:05.506Z,55.00
2017-09-20T06:36:34.002Z,53.63
2017-09-20T06:39:01.738Z,52.92
2017-09-20T06:41:30.225Z,53.97
2017-09-20T06:43:58.727Z,57.90
2017-09-20T06:46:26.464Z,47.45
2017-09-20T06:51:28.175Z,60.12
2017-09-20T06:53:55.897Z,61.35
2017-09-20T06:56:23.628Z,63.45
2017-09-20T06:58:51.359Z,60.03
2017-09-20T07:01:19.091Z,53.50
2017-09-20T07:03:46.818Z,74.25
2017-09-20T07:06:14.534Z,58.17
2017-09-20T07:08:43.020Z,57.70
2017-09-20T07:11:10.746Z,63.38
2017-09-20T07:13:38.468Z,59.83
2017-09-20T07:16:06.203Z,56.78
2017-09-20T07:18:34.699Z,58.53
2017-09-20T07:21:02.420Z,58.42
2017-09-20T07:23:30.126Z,62.53
2017-09-20T07:25:58.617Z,62.62
2017-09-20T07:28:26.375Z,57.40
2017-09-20T07:30:54.091Z,62.03
2017-09-20T07:33:21.806Z,53.65
2017-09-20T07:35:49.519Z,62.10
2017-09-20T07:38:17.238Z,61.47
2017-09-20T07:40:44.951Z,62.05
2017-09-20T07:43:12.668Z,59.90
2017-09-20T07:45:40.407Z,57.62
2017-09-20T07:48:08.887Z,59.83
2017-09-20T07:50:37.372Z,52.30
2017-09-20T07:53:05.855Z,49.28
2017-09-20T07:55:34.339Z,43.10
2017-09-20T07:58:02.828Z,45.95
2017-09-20T08:00:31.309Z,44.90
2017-09-20T08:02:59.790Z,54.38
2017-09-20T08:05:27.501Z,49.88
2017-09-20T08:07:55.240Z,52.08
2017-09-20T08:10:22.954Z,42.58
2017-09-20T08:12:50.662Z,51.35
2017-09-20T08:15:18.383Z,40.63
2017-09-20T08:17:46.114Z,45.70
2017-09-20T08:20:13.835Z,45.08
2017-09-20T08:22:42.320Z,43.38
2017-09-20T08:25:10.810Z,53.90
2017-09-20T08:27:38.528Z,53.15
2017-09-20T08:30:06.255Z,45.35
2017-09-20T08:32:33.968Z,46.45
2017-09-20T08:35:01.692Z,45.53
2017-09-20T08:37:29.407Z,45.03
2017-09-20T08:39:57.922Z,51.35
2017-09-20T08:42:25.648Z,46.17
2017-09-20T08:44:54.132Z,47.35
2017-09-20T08:47:22.613Z,48.10
2017-09-20T08:49:51.164Z,54.28
2017-09-20T08:52:18.895Z,41.25
2017-09-20T08:54:46.619Z,56.58
2017-09-20T08:57:14.339Z,43.87
2017-09-20T08:59:42.051Z,49.42
2017-09-20T09:02:09.780Z,45.35
2017-09-20T09:04:38.263Z,47.17
2017-09-20T09:07:05.983Z,48.67
2017-09-20T09:09:33.695Z,48.65
2017-09-20T09:12:01.408Z,45.28
2017-09-20T09:14:29.895Z,47.30
2017-09-20T09:16:57.614Z,46.00
2017-09-20T09:19:25.335Z,52.10
2017-09-20T09:21:53.076Z,42.70
2017-09-20T09:24:21.557Z,38.72
2017-09-20T09:26:50.043Z,43.40
2017-09-20T09:29:17.757Z,43.87
2017-09-20T09:31:45.485Z,44.30
2017-09-20T09:34:13.202Z,42.25
2017-09-20T09:36:40.925Z,42.38
2017-09-20T09:39:08.646Z,41.00
2017-09-20T09:41:37.130Z,37.63
2017-09-20T09:44:05.655Z,36.67
2017-09-20T09:46:33.372Z,35.58
2017-09-20T09:49:01.850Z,46.60
2017-09-20T09:51:30.363Z,37.83
2017-09-20T09:53:58.093Z,36.97
2017-09-20T09:56:25.811Z,38.47
2017-09-20T09:58:53.524Z,32.25
2017-09-20T10:01:21.234Z,35.97
2017-09-20T10:03:48.947Z,30.83
2017-09-20T10:06:16.705Z,32.58
2017-09-20T10:08:44.417Z,29.67
2017-09-20T10:11:12.139Z,33.38
2017-09-20T10:13:39.851Z,33.30
2017-09-20T10:16:07.562Z,32.50
2017-09-20T10:18:35.290Z,34.03
2017-09-20T10:21:03.018Z,30.98
2017-09-20T10:23:31.503Z,30.58
2017-09-20T10:25:59.986Z,27.77
2017-09-20T10:28:27.715Z,35.10
2017-09-20T10:30:55.439Z,33.60
2017-09-20T10:33:23.158Z,26.12
2017-09-20T10:35:50.883Z,23.55
2017-09-20T10:38:18.602Z,30.52
2017-09-20T10:40:47.078Z,30.88
2017-09-20T10:43:15.566Z,27.62
2017-09-20T10:45:44.047Z,24.92
2017-09-20T10:48:12.526Z,25.92
2017-09-20T10:50:41.050Z,25.73
2017-09-20T10:53:08.767Z,27.77
2017-09-20T10:55:37.251Z,25.25
2017-09-20T10:58:05.734Z,30.00
2017-09-20T11:00:34.220Z,40.88
2017-09-20T11:03:02.703Z,28.92
2017-09-20T11:05:31.182Z,26.75
2017-09-20T11:07:59.658Z,27.83
2017-09-20T11:10:28.152Z,28.15
2017-09-20T11:12:55.886Z,34.92
2017-09-20T11:15:23.623Z,30.55
2017-09-20T11:17:51.363Z,28.50
2017-09-20T11:20:19.090Z,28.35
2017-09-20T11:22:47.583Z,26.45
2017-09-20T11:25:16.087Z,29.00
2017-09-20T11:27:43.850Z,28.55
2017-09-20T11:30:11.574Z,30.40
2017-09-20T11:32:39.303Z,27.08
2017-09-20T11:35:07.036Z,34.20
2017-09-20T11:37:34.757Z,23.73
2017-09-20T11:40:02.483Z,26.70
2017-09-20T11:42:30.206Z,26.12
2017-09-20T11:44:58.696Z,25.42
2017-09-20T11:47:27.198Z,26.62
2017-09-20T11:49:54.926Z,22.48
2017-09-20T11:52:22.662Z,25.17
2017-09-20T11:54:50.387Z,24.00
2017-09-20T11:57:18.120Z,20.67
2017-09-20T11:59:46.622Z,23.05
2017-09-20T12:02:14.359Z,22.10
2017-09-20T12:04:42.102Z,24.10
2017-09-20T12:07:09.823Z,23.80
2017-09-20T12:09:37.539Z,19.90
2017-09-20T12:12:05.256Z,20.77
2017-09-20T12:14:32.996Z,28.02
2017-09-20T12:17:01.489Z,19.33
2017-09-20T12:19:29.223Z,19.73
2017-09-20T12:21:56.944Z,17.95
2017-09-20T12:24:24.669Z,17.87
2017-09-20T12:26:53.159Z,23.52
2017-09-20T12:29:21.639Z,25.33
2017-09-20T12:31:50.122Z,20.27
2017-09-20T12:34:17.852Z,21.90
2017-09-20T12:36:45.571Z,24.25
2017-09-20T12:39:13.297Z,21.73
2017-09-20T12:41:41.010Z,23.25
2017-09-20T12:44:08.722Z,28.38
2017-09-20T12:46:36.448Z,22.62
2017-09-20T12:49:04.158Z,22.90
2017-09-20T12:51:32.643Z,22.73
2017-09-20T12:54:01.123Z,21.40
2017-09-20T12:56:29.606Z,21.65
2017-09-20T12:58:58.085Z,22.90
2017-09-20T13:01:26.611Z,22.27
2017-09-20T13:03:54.328Z,19.62
2017-09-20T13:06:22.883Z,19.05
2017-09-20T13:08:50.608Z,20.98
2017-09-20T13:11:18.331Z,15.27
2017-09-20T13:13:46.042Z,24.65
2017-09-20T13:16:13.763Z,7.30
2017-09-20T13:18:41.479Z,6.70
2017-09-20T13:21:09.204Z,8.25
2017-09-20T13:23:37.684Z,5.87
2017-09-20T13:26:06.166Z,6.35
2017-09-20T13:28:34.643Z,5.07
2017-09-20T13:31:03.126Z,6.82
2017-09-20T13:33:31.653Z,6.43
2017-09-20T13:35:59.366Z,3.58
2017-09-20T13:38:27.089Z,4.62
2017-09-20T13:40:54.812Z,8.73
2017-09-20T13:43:23.292Z,6.12
2017-09-20T13:45:51.767Z,7.20
2017-09-20T13:48:20.246Z,7.65
2017-09-20T13:50:48.726Z,7.20
2017-09-20T13:53:16.457Z,5.10
2017-09-20T13:55:44.178Z,4.20
2017-09-20T13:58:11.899Z,6.80
2017-09-20T14:00:39.653Z,8.02
2017-09-20T14:03:07.371Z,8.90
2017-09-20T14:05:35.076Z,8.77
2017-09-20T14:08:02.787Z,7.22
2017-09-20T14:10:31.263Z,7.15
2017-09-20T14:12:59.730Z,7.45
2017-09-20T14:15:27.443Z,7.78
2017-09-20T14:17:55.157Z,14.50
2017-09-20T14:20:22.880Z,9.02
2017-09-20T14:22:50.593Z,10.73
2017-09-20T14:25:19.071Z,8.07
2017-09-20T14:27:47.570Z,6.82
2017-09-20T14:30:16.042Z,7.85
2017-09-20T14:32:44.515Z,9.10
2017-09-20T14:35:12.227Z,10.07
2017-09-20T14:37:39.934Z,8.90
2017-09-20T14:40:07.639Z,8.60
2017-09-20T14:42:35.347Z,9.70
2017-09-20T14:45:03.062Z,7.37
2017-09-20T14:47:30.780Z,5.85
2017-09-20T14:49:58.499Z,6.25
2017-09-20T14:52:26.251Z,6.32
2017-09-20T14:54:53.963Z,6.80
2017-09-20T14:57:21.674Z,8.95
2017-09-20T14:59:49.386Z,15.48
2017-09-20T15:02:17.121Z,7.50
2017-09-20T15:04:44.831Z,5.70
2017-09-20T15:07:12.538Z,6.25
2017-09-20T15:09:40.285Z,6.68
2017-09-20T15:12:08.770Z,9.10
2017-09-20T15:14:37.287Z,9.60
2017-09-20T15:17:05.004Z,12.45
2017-09-20T15:19:33.490Z,10.88
2017-09-20T15:22:01.958Z,10.23
2017-09-20T15:24:29.688Z,12.07
2017-09-20T15:26:57.419Z,17.10
2017-09-20T15:29:25.144Z,17.02
2017-09-20T15:31:52.927Z,22.58
2017-09-20T15:34:22.174Z,15.80
2017-09-20T15:36:49.899Z,13.40
2017-09-20T15:39:18.477Z,15.40
2017-09-20T15:41:47.125Z,15.88
2017-09-20T15:44:14.990Z,14.90
2017-09-20T15:46:42.858Z,19.80
2017-09-20T15:49:10.725Z,13.82
2017-09-20T15:51:38.593Z,16.23
2017-09-20T15:54:06.460Z,14.32
2017-09-20T15:56:34.328Z,15.98
2017-09-20T15:59:02.194Z,16.55
2017-09-20T16:01:30.062Z,18.10
2017-09-20T16:03:57.929Z,17.25
2017-09-20T16:06:25.796Z,17.83
2017-09-20T16:08:56.101Z,18.65
2017-09-20T16:11:26.337Z,23.67
2017-09-20T16:13:56.436Z,20.75
2017-09-20T16:16:24.251Z,23.25
2017-09-20T16:18:53.988Z,24.90
2017-09-20T16:21:24.883Z,24.58
2017-09-20T16:23:52.850Z,36.58
2017-09-20T16:26:20.716Z,25.50
2017-09-20T16:28:49.505Z,23.00
2017-09-20T16:31:17.398Z,25.02
2017-09-20T16:33:45.239Z,31.10
2017-09-20T16:36:13.107Z,28.73
2017-09-20T16:38:40.974Z,30.37
2017-09-20T16:41:08.841Z,29.23
2017-09-20T16:43:36.708Z,28.83
2017-09-20T16:46:04.576Z,30.02
2017-09-20T16:48:32.448Z,28.83
2017-09-20T16:51:00.313Z,37.03
2017-09-20T16:53:28.180Z,36.35
2017-09-20T16:55:56.050Z,34.58
2017-09-20T16:58:23.919Z,36.17
2017-09-20T17:00:51.785Z,35.58
2017-09-20T17:03:19.754Z,34.30
2017-09-20T17:05:47.720Z,34.92
2017-09-20T17:08:15.587Z,35.65
2017-09-20T17:10:43.454Z,34.63
2017-09-20T17:13:11.321Z,41.70
2017-09-20T17:15:39.188Z,41.90
2017-09-20T17:18:07.057Z,37.60
2017-09-20T17:20:34.923Z,40.00
2017-09-20T17:23:02.794Z,40.38
2017-09-20T17:25:30.661Z,40.95
2017-09-20T17:27:58.538Z,33.80
2017-09-20T17:30:26.395Z,36.83
2017-09-20T17:32:54.260Z,43.40
2017-09-20T17:35:22.128Z,36.22
2017-09-20T17:37:49.995Z,36.92
2017-09-20T17:40:17.861Z,36.40
2017-09-20T17:42:45.729Z,37.70
2017-09-20T17:45:13.597Z,36.00
2017-09-20T17:47:41.463Z,34.40
2017-09-20T17:50:09.331Z,36.75
2017-09-20T17:52:37.198Z,39.67
2017-09-20T17:55:05.066Z,31.90
2017-09-20T17:57:32.933Z,36.90
2017-09-20T18:00:00.801Z,40.90
2017-09-20T18:02:28.667Z,33.10
2017-09-20T18:04:56.535Z,34.20
2017-09-20T18:07:24.402Z,28.08
2017-09-20T18:09:52.269Z,36.95
2017-09-20T18:12:20.136Z,32.30
2017-09-20T18:14:48.004Z,39.85
2017-09-20T18:17:15.870Z,31.90
2017-09-20T18:19:43.738Z,32.03
2017-09-20T18:22:11.606Z,34.28
2017-09-20T18:24:39.473Z,30.88
2017-09-20T18:27:07.647Z,31.15
2017-09-20T18:29:35.515Z,41.60
2017-09-20T18:32:03.385Z,40.08
2017-09-20T18:34:31.249Z,34.85
2017-09-20T18:36:59.046Z,39.33
2017-09-20T18:39:26.881Z,38.67
2017-09-20T18:41:54.749Z,32.42
2017-09-20T18:44:22.617Z,39.63
2017-09-20T18:46:50.484Z,30.40
2017-09-20T18:49:18.352Z,33.72
2017-09-20T18:51:46.682Z,37.92
2017-09-20T18:54:14.496Z,31.27
2017-09-20T18:56:42.362Z,39.03
2017-09-20T18:59:10.231Z,32.92
2017-09-20T19:01:38.097Z,35.25
2017-09-20T19:04:05.966Z,39.42
2017-09-20T19:06:33.832Z,37.40
2017-09-20T19:09:01.700Z,40.05
2017-09-20T19:11:29.419Z,32.90
2017-09-20T19:13:57.199Z,35.72
2017-09-20T19:16:24.994Z,36.17
2017-09-20T19:18:52.839Z,37.30
2017-09-20T19:21:20.563Z,33.33
2017-09-20T19:23:49.043Z,41.20
2017-09-20T19:26:17.693Z,36.13
2017-09-20T19:28:45.559Z,40.72
2017-09-20T19:31:13.427Z,38.50
2017-09-20T19:33:41.294Z,41.50
2017-09-20T19:36:09.162Z,32.90
2017-09-20T19:38:37.029Z,31.25
2017-09-20T19:41:04.998Z,37.00
2017-09-20T19:43:32.866Z,38.83
2017-09-20T19:46:00.734Z,34.15
2017-09-20T19:48:28.601Z,35.05
2017-09-20T19:50:56.426Z,38.97
2017-09-20T19:53:24.335Z,41.08
2017-09-20T19:55:52.206Z,34.45
2017-09-20T19:58:20.070Z,36.40
2017-09-20T20:00:47.937Z,35.58
2017-09-20T20:03:15.809Z,36.63
2017-09-20T20:05:44.848Z,32.72
2017-09-20T20:08:13.486Z,38.45
2017-09-20T20:10:41.479Z,44.38
2017-09-20T20:13:09.328Z,37.95
2017-09-20T20:15:37.193Z,34.70
2017-09-20T20:18:05.247Z,37.03
2017-09-20T20:20:33.233Z,43.33
2017-09-20T20:23:01.099Z,36.75
2017-09-20T20:25:28.965Z,35.42
2017-09-20T20:27:56.835Z,33.00
2017-09-20T20:30:24.700Z,39.45
2017-09-20T20:32:52.567Z,34.05
2017-09-20T20:35:20.440Z,32.08
2017-09-20T20:37:48.302Z,33.53
2017-09-20T20:40:16.169Z,36.65
2017-09-20T20:42:44.060Z,34.17
2017-09-20T20:45:11.903Z,35.17
2017-09-20T20:47:39.771Z,32.83
2017-09-20T20:50:07.638Z,24.50
2017-09-20T20:52:35.505Z,21.83
2017-09-20T20:55:03.382Z,22.33
2017-09-20T20:57:31.239Z,23.23
2017-09-20T20:59:59.108Z,25.12
2017-09-20T21:02:26.974Z,25.27
2017-09-20T21:04:54.849Z,30.80
2017-09-20T21:07:22.709Z,26.87
2017-09-20T21:09:50.576Z,28.50
2017-09-20T21:12:18.290Z,23.15
2017-09-20T21:14:46.810Z,25.35
2017-09-20T21:17:14.691Z,24.58
2017-09-20T21:19:42.558Z,26.90
2017-09-20T21:22:10.437Z,26.55
2017-09-20T21:24:38.292Z,30.33
2017-09-20T21:27:06.160Z,31.98
2017-09-20T21:29:34.027Z,42.62
2017-09-20T21:32:01.894Z,55.60
2017-09-20T21:34:29.761Z,46.15
2017-09-20T21:36:57.632Z,52.78
2017-09-20T21:39:25.495Z,47.42
2017-09-20T21:41:53.876Z,45.78
2017-09-20T21:44:21.933Z,48.13
2017-09-20T21:46:50.634Z,47.65
2017-09-20T21:49:18.501Z,45.67
2017-09-20T21:51:46.369Z,45.83
2017-09-20T21:54:14.237Z,41.63
2017-09-20T21:56:42.109Z,48.00
2017-09-20T21:59:09.971Z,41.47
2017-09-20T22:01:37.838Z,42.67
2017-09-20T22:04:05.706Z,35.80
2017-09-20T22:06:33.573Z,48.00
2017-09-20T22:09:01.441Z,39.65
2017-09-20T22:11:29.307Z,39.70
2017-09-20T22:13:57.175Z,37.80
2017-09-20T22:16:37.027Z,40.22
2017-09-20T22:19:16.666Z,34.65
2017-09-20T22:21:56.310Z,39.65
2017-09-20T22:24:36.055Z,40.35
2017-09-20T22:27:03.941Z,37.53
2017-09-20T22:29:31.892Z,33.00
2017-09-20T22:31:59.759Z,34.92
2017-09-20T22:34:27.630Z,31.73
2017-09-20T22:36:55.530Z,30.10
2017-09-20T22:39:24.180Z,38.53
2017-09-20T22:41:52.048Z,47.33
2017-09-20T22:44:19.915Z,42.17
2017-09-20T22:46:47.783Z,45.72
2017-09-20T22:49:15.656Z,38.88
2017-09-20T22:51:43.517Z,39.97
2017-09-20T22:54:11.384Z,46.25
2017-09-20T22:56:39.252Z,52.30
2017-09-20T22:59:07.119Z,41.70
2017-09-20T23:01:34.999Z,41.25
2017-09-20T23:04:02.853Z,39.90
2017-09-20T23:06:30.721Z,40.00
2017-09-20T23:08:58.588Z,49.85
2017-09-20T23:11:26.456Z,51.75
2017-09-20T23:13:54.326Z,45.20
2017-09-20T23:16:22.192Z,47.45
2017-09-20T23:18:50.058Z,42.88
2017-09-20T23:21:17.929Z,53.58
2017-09-20T23:23:45.796Z,46.63
2017-09-20T23:26:13.663Z,42.92
2017-09-20T23:28:41.529Z,45.25
2017-09-20T23:31:09.395Z,50.67
2017-09-20T23:33:37.262Z,46.90
2017-09-20T23:36:05.128Z,44.45
2017-09-20T23:38:33.200Z,40.35
2017-09-20T23:41:01.068Z,38.55
2017-09-20T23:43:28.934Z,40.03
2017-09-20T23:45:56.802Z,38.00
2017-09-20T23:48:24.670Z,33.22
2017-09-20T23:50:52.543Z,36.00
2017-09-20T23:53:20.405Z,34.72
2017-09-20T23:55:48.272Z,36.58
2017-09-20T23:58:16.139Z,29.75
